createdAt,value
2023-02-05T00:00:52.135Z,73.50
2023-02-05T00:03:18.921Z,73.54
2023-02-05T00:05:46.752Z,72.94
2023-02-05T00:08:16.480Z,73.31
2023-02-05T00:10:43.303Z,73.41
2023-02-05T00:13:12.538Z,73.89
2023-02-05T00:15:42.766Z,73.52
2023-02-05T00:18:11.798Z,72.85
2023-02-05T00:20:38.644Z,74.04
2023-02-05T00:23:05.754Z,74.30
2023-02-05T00:25:33.702Z,74.30
2023-02-05T00:28:05.871Z,73.38
2023-02-05T00:30:33.711Z,73.88
2023-02-05T00:33:01.190Z,73.94
2023-02-05T00:35:29.027Z,74.13
2023-02-05T00:37:56.484Z,74.04
2023-02-05T00:40:24.722Z,74.10
2023-02-05T00:42:52.214Z,74.28
2023-02-05T00:45:18.951Z,74.05
2023-02-05T00:47:45.791Z,74.14
2023-02-05T00:50:12.574Z,73.79
2023-02-05T00:52:39.330Z,72.58
2023-02-05T00:55:06.695Z,73.31
2023-02-05T00:57:33.528Z,73.41
2023-02-05T01:00:01.491Z,73.92
2023-02-05T01:02:28.424Z,73.88
2023-02-05T01:04:59.019Z,74.02
2023-02-05T01:07:26.241Z,74.53
2023-02-05T01:09:55.256Z,74.46
2023-02-05T01:12:23.209Z,74.71
2023-02-05T01:14:50.664Z,74.25
2023-02-05T01:17:22.914Z,74.09
2023-02-05T01:19:50.694Z,74.00
2023-02-05T01:22:18.904Z,74.46
2023-02-05T01:24:45.722Z,74.01
2023-02-05T01:27:12.699Z,74.28
2023-02-05T01:29:40.809Z,74.44
2023-02-05T01:32:07.886Z,74.17
2023-02-05T01:34:34.708Z,73.55
2023-02-05T01:37:01.728Z,73.64
2023-02-05T01:39:34.797Z,73.46
2023-02-05T01:42:03.617Z,73.23
2023-02-05T01:44:31.424Z,73.09
2023-02-05T01:46:58.946Z,73.29
2023-02-05T01:49:56.665Z,73.85
2023-02-05T01:52:26.538Z,73.75
2023-02-05T01:54:53.585Z,74.18
2023-02-05T01:57:24.749Z,74.50
2023-02-05T01:59:54.181Z,74.43
2023-02-05T02:02:27.596Z,73.96
2023-02-05T02:05:03.005Z,74.40
2023-02-05T02:07:32.103Z,74.19
2023-02-05T02:10:00.859Z,74.26
2023-02-05T02:12:32.442Z,74.12
2023-02-05T02:15:06.729Z,73.92
2023-02-05T02:17:37.432Z,73.79
2023-02-05T02:20:07.428Z,74.04
2023-02-05T02:23:06.196Z,74.21
2023-02-05T02:25:42.155Z,74.16
2023-02-05T02:28:26.456Z,74.14
2023-02-05T02:31:04.226Z,73.88
2023-02-05T02:33:49.832Z,74.22
2023-02-05T02:36:33.703Z,74.46
2023-02-05T02:39:08.596Z,74.80
2023-02-05T02:41:52.163Z,75.08
2023-02-05T02:44:32.521Z,74.76
2023-02-05T02:47:03.943Z,74.87
2023-02-05T02:49:36.620Z,74.61
2023-02-05T02:52:06.892Z,74.81
2023-02-05T02:54:36.312Z,74.87
2023-02-05T02:57:07.068Z,75.21
2023-02-05T02:59:37.818Z,75.05
2023-02-05T03:02:07.413Z,74.47
2023-02-05T03:04:39.939Z,74.89
2023-02-05T03:07:17.691Z,75.36
2023-02-05T03:10:02.753Z,74.79
2023-02-05T03:12:29.965Z,75.04
2023-02-05T03:14:57.274Z,74.82
2023-02-05T03:17:25.494Z,74.70
2023-02-05T03:20:01.144Z,74.40
2023-02-05T03:22:27.958Z,74.41
2023-02-05T03:24:54.603Z,74.55
2023-02-05T03:27:23.150Z,74.54
2023-02-05T03:29:50.866Z,74.00
2023-02-05T03:32:38.576Z,74.05
2023-02-05T03:35:56.388Z,73.48
2023-02-05T03:38:43.803Z,73.80
2023-02-05T03:41:38.259Z,74.16
2023-02-05T03:44:13.010Z,74.24
2023-02-05T03:46:53.104Z,74.24
2023-02-05T03:49:30.406Z,74.64
2023-02-05T03:52:10.721Z,74.60
2023-02-05T03:55:01.002Z,74.31
2023-02-05T03:57:49.383Z,74.14
2023-02-05T04:00:17.271Z,74.18
2023-02-05T04:02:46.425Z,73.95
2023-02-05T04:05:19.112Z,73.62
2023-02-05T04:07:46.441Z,74.10
2023-02-05T04:10:13.245Z,73.79
2023-02-05T04:12:40.867Z,73.81
2023-02-05T04:15:08.167Z,73.83
2023-02-05T04:17:40.317Z,74.11
2023-02-05T04:20:08.497Z,73.85
2023-02-05T04:22:35.290Z,73.96
2023-02-05T04:25:02.313Z,74.15
2023-02-05T04:27:29.414Z,74.36
2023-02-05T04:29:58.792Z,73.86
2023-02-05T04:32:26.407Z,74.16
2023-02-05T04:34:53.404Z,74.09
2023-02-05T04:37:20.240Z,73.81
2023-02-05T04:39:47.532Z,74.14
2023-02-05T04:42:14.193Z,74.60
2023-02-05T04:44:40.901Z,75.75
2023-02-05T04:47:07.581Z,75.53
2023-02-05T04:49:34.933Z,76.05
2023-02-05T04:52:01.558Z,75.79
2023-02-05T04:54:28.220Z,75.30
2023-02-05T04:56:54.939Z,76.04
2023-02-05T04:59:21.567Z,75.85
2023-02-05T05:01:48.291Z,75.80
2023-02-05T05:04:15.100Z,75.08
2023-02-05T05:06:41.840Z,75.49
2023-02-05T05:09:08.722Z,75.74
2023-02-05T05:11:35.408Z,75.49
2023-02-05T05:14:02.096Z,75.75
2023-02-05T05:16:30.457Z,75.64
2023-02-05T05:22:13.560Z,75.75
2023-02-05T05:28:24.132Z,76.10
2023-02-05T05:31:52.302Z,76.19
2023-02-05T05:35:06.444Z,76.15
2023-02-05T05:37:54.245Z,76.08
2023-02-05T05:40:56.142Z,76.33
2023-02-05T05:44:28.997Z,75.98
2023-02-05T05:47:55.265Z,76.45
2023-02-05T05:58:19.235Z,76.39
2023-02-05T06:01:23.686Z,77.10
2023-02-05T06:07:03.542Z,78.58
2023-02-05T06:10:05.034Z,79.82
2023-02-05T06:13:23.738Z,79.86
2023-02-05T06:18:55.374Z,79.57
2023-02-05T06:21:39.481Z,79.47
2023-02-05T06:24:11.445Z,79.70
2023-02-05T06:29:39.316Z,78.56
2023-02-05T06:32:06.271Z,78.90
2023-02-05T06:34:32.872Z,78.07
2023-02-05T06:36:59.663Z,77.92
2023-02-05T06:39:26.528Z,77.73
2023-02-05T06:41:53.261Z,77.12
2023-02-05T06:44:20.049Z,76.96
2023-02-05T06:46:46.998Z,77.23
2023-02-05T06:49:13.689Z,77.17
2023-02-05T06:51:40.560Z,77.13
2023-02-05T06:54:07.287Z,76.78
2023-02-05T06:56:34.109Z,76.99
2023-02-05T06:59:00.720Z,76.96
2023-02-05T07:01:27.652Z,77.29
2023-02-05T07:03:54.275Z,76.76
2023-02-05T07:06:20.920Z,76.74
2023-02-05T07:08:47.616Z,76.92
2023-02-05T07:11:14.380Z,76.91
2023-02-05T07:13:41.200Z,76.30
2023-02-05T07:16:08.244Z,76.31
2023-02-05T07:18:35.216Z,76.52
2023-02-05T07:21:06.140Z,76.24
2023-02-05T07:23:33.288Z,75.95
2023-02-05T07:26:07.160Z,76.77
2023-02-05T07:28:33.877Z,75.87
2023-02-05T07:31:11.877Z,75.83
2023-02-05T07:33:38.631Z,75.90
2023-02-05T07:36:07.550Z,75.94
2023-02-05T07:38:34.791Z,76.29
2023-02-05T07:41:10.096Z,75.82
2023-02-05T07:43:37.086Z,76.32
2023-02-05T07:46:06.241Z,76.64
2023-02-05T07:48:33.432Z,76.12
2023-02-05T07:51:01.178Z,76.49
2023-02-05T07:53:29.794Z,76.26
2023-02-05T07:55:56.603Z,76.08
2023-02-05T07:58:56.070Z,76.11
2023-02-05T08:01:44.322Z,76.52
2023-02-05T08:08:04.970Z,76.83
2023-02-05T08:14:09.704Z,77.63
2023-02-05T08:16:36.686Z,77.60
2023-02-05T08:19:03.465Z,77.81
2023-02-05T08:21:30.366Z,77.23
2023-02-05T08:23:57.333Z,78.46
2023-02-05T08:26:24.371Z,78.00
2023-02-05T08:28:55.702Z,77.54
2023-02-05T08:31:45.182Z,77.40
2023-02-05T08:34:24.592Z,77.19
2023-02-05T08:36:52.678Z,77.07
2023-02-05T08:39:19.269Z,76.60
2023-02-05T08:41:45.993Z,77.40
2023-02-05T08:44:13.537Z,77.33
2023-02-05T08:46:49.807Z,77.01
2023-02-05T08:49:17.945Z,76.76
2023-02-05T08:51:46.568Z,76.54
2023-02-05T08:54:15.335Z,76.78
2023-02-05T08:56:54.956Z,76.96
2023-02-05T08:59:27.788Z,77.66
2023-02-05T09:01:55.850Z,78.75
2023-02-05T09:04:24.084Z,79.42
2023-02-05T09:06:51.357Z,79.30
2023-02-05T09:09:18.437Z,79.43
2023-02-05T09:11:46.769Z,79.44
2023-02-05T09:14:14.596Z,78.31
2023-02-05T09:16:41.812Z,78.27
2023-02-05T09:19:08.451Z,78.97
2023-02-05T09:21:35.327Z,78.43
2023-02-05T09:24:02.366Z,78.63
2023-02-05T09:26:29.606Z,78.49
2023-02-05T09:28:57.798Z,79.37
2023-02-05T09:31:25.671Z,80.92
2023-02-05T09:37:19.789Z,79.94
2023-02-05T09:43:01.810Z,78.52
2023-02-05T09:45:35.640Z,77.95
2023-02-05T09:48:23.584Z,78.05
2023-02-05T09:50:50.762Z,78.47
2023-02-05T09:53:21.341Z,78.63
2023-02-05T09:55:49.536Z,78.29
2023-02-05T09:58:28.632Z,76.92
2023-02-05T10:01:03.923Z,79.22
2023-02-05T10:03:48.321Z,81.13
2023-02-05T10:06:37.212Z,82.10
2023-02-05T10:09:16.380Z,82.68
2023-02-05T10:11:57.184Z,81.67
2023-02-05T10:14:49.148Z,80.96
2023-02-05T10:17:26.901Z,79.80
2023-02-05T10:20:25.946Z,78.65
2023-02-05T10:23:07.779Z,78.25
2023-02-05T10:25:38.569Z,77.78
2023-02-05T10:28:27.323Z,76.81
2023-02-05T10:31:23.253Z,75.50
2023-02-05T10:33:53.356Z,76.71
2023-02-05T10:36:25.443Z,75.08
2023-02-05T10:38:56.389Z,75.23
2023-02-05T10:41:38.268Z,74.74
2023-02-05T10:44:23.379Z,74.44
2023-02-05T10:46:53.643Z,74.25
2023-02-05T10:49:29.215Z,74.80
2023-02-05T10:51:56.344Z,75.31
2023-02-05T10:54:31.228Z,74.99
2023-02-05T10:56:58.574Z,75.46
2023-02-05T10:59:35.861Z,75.57
2023-02-05T11:02:06.202Z,76.20
2023-02-05T11:04:35.587Z,77.17
2023-02-05T11:07:02.697Z,77.95
2023-02-05T11:09:31.938Z,77.36
2023-02-05T11:12:02.446Z,77.23
2023-02-05T11:14:40.566Z,76.47
2023-02-05T11:17:24.864Z,76.54
2023-02-05T11:20:08.235Z,76.08
2023-02-05T11:22:37.678Z,76.03
2023-02-05T11:25:13.537Z,76.21
2023-02-05T11:27:40.370Z,76.94
2023-02-05T11:30:47.639Z,77.16
2023-02-05T11:33:21.456Z,77.69
2023-02-05T11:35:56.044Z,76.94
2023-02-05T11:38:29.064Z,77.21
2023-02-05T11:41:02.832Z,77.40
2023-02-05T11:43:37.640Z,77.80
2023-02-05T11:46:09.794Z,77.95
2023-02-05T11:48:59.120Z,77.49
2023-02-05T11:51:46.957Z,77.24
2023-02-05T11:54:21.028Z,76.23
2023-02-05T11:57:19.991Z,76.12
2023-02-05T11:59:57.264Z,76.17
2023-02-05T12:02:29.870Z,75.95
2023-02-05T12:05:20.175Z,75.92
2023-02-05T12:08:08.884Z,76.25
2023-02-05T12:10:54.823Z,76.90
2023-02-05T12:13:40.352Z,75.61
2023-02-05T12:16:28.770Z,77.49
2023-02-05T12:19:21.964Z,76.42
2023-02-05T12:22:10.253Z,76.53
2023-02-05T12:24:47.774Z,77.41
2023-02-05T12:27:20.435Z,79.27
2023-02-05T12:30:10.184Z,79.35
2023-02-05T12:32:39.900Z,78.53
2023-02-05T12:35:13.473Z,77.72
2023-02-05T12:37:51.426Z,78.05
2023-02-05T12:40:33.168Z,78.53
2023-02-05T12:43:39.747Z,76.97
2023-02-05T12:46:39.771Z,75.37
2023-02-05T12:49:30.301Z,75.24
2023-02-05T12:52:42.208Z,75.68
2023-02-05T12:55:17.733Z,75.54
2023-02-05T12:57:49.944Z,76.05
2023-02-05T13:00:32.510Z,75.72
2023-02-05T13:03:12.584Z,76.58
2023-02-05T13:06:03.346Z,76.54
2023-02-05T13:08:41.617Z,76.68
2023-02-05T13:11:26.708Z,76.60
2023-02-05T13:14:01.528Z,76.18
2023-02-05T13:17:02.975Z,76.73
2023-02-05T13:19:35.711Z,77.35
2023-02-05T13:22:12.257Z,77.05
2023-02-05T13:24:47.040Z,76.72
2023-02-05T13:27:36.702Z,77.60
2023-02-05T13:30:05.126Z,77.65
2023-02-05T13:32:33.360Z,77.59
2023-02-05T13:35:00.435Z,78.17
2023-02-05T13:37:42.144Z,78.77
2023-02-05T13:40:16.124Z,78.89
2023-02-05T13:42:48.458Z,80.13
2023-02-05T13:45:55.366Z,79.54
2023-02-05T13:48:40.715Z,79.13
2023-02-05T13:51:16.562Z,79.08
2023-02-05T13:54:14.294Z,79.45
2023-02-05T13:57:04.132Z,78.47
2023-02-05T13:59:38.874Z,78.14
2023-02-05T14:02:39.360Z,77.57
2023-02-05T14:05:07.494Z,76.94
2023-02-05T14:07:47.551Z,77.72
2023-02-05T14:10:35.990Z,76.30
2023-02-05T14:13:31.082Z,76.16
2023-02-05T14:15:58.537Z,76.52
2023-02-05T14:18:40.478Z,78.54
2023-02-05T14:21:32.038Z,80.18
2023-02-05T14:24:01.414Z,81.45
2023-02-05T14:26:46.628Z,82.66
2023-02-05T14:29:37.893Z,83.24
2023-02-05T14:32:04.756Z,83.04
2023-02-05T14:34:34.379Z,83.61
2023-02-05T14:37:01.174Z,83.52
2023-02-05T14:39:33.272Z,83.15
2023-02-05T14:42:03.297Z,82.96
2023-02-05T14:44:40.376Z,81.68
2023-02-05T14:47:23.984Z,82.19
2023-02-05T14:49:51.878Z,82.93
2023-02-05T14:52:40.712Z,82.35
2023-02-05T14:55:17.346Z,81.96
2023-02-05T14:58:00.874Z,81.97
2023-02-05T15:00:36.719Z,81.47
2023-02-05T15:03:12.582Z,81.02
2023-02-05T15:05:45.248Z,80.96
2023-02-05T15:08:36.431Z,80.44
2023-02-05T15:11:19.002Z,80.08
2023-02-05T15:14:19.578Z,79.61
2023-02-05T15:17:07.554Z,79.04
2023-02-05T15:19:39.889Z,78.83
2023-02-05T15:22:25.980Z,79.01
2023-02-05T15:24:54.516Z,79.26
2023-02-05T15:27:26.356Z,79.21
2023-02-05T15:29:57.173Z,79.14
2023-02-05T15:32:28.770Z,78.14
2023-02-05T15:35:12.836Z,77.57
2023-02-05T15:37:49.396Z,77.27
2023-02-05T15:40:20.400Z,76.54
2023-02-05T15:42:52.121Z,76.42
2023-02-05T15:45:39.092Z,77.07
2023-02-05T15:48:09.019Z,77.41
2023-02-05T15:50:43.418Z,77.33
2023-02-05T15:53:27.660Z,76.59
2023-02-05T15:55:54.725Z,76.87
2023-02-05T15:58:25.924Z,76.07
2023-02-05T16:00:54.029Z,76.18
2023-02-05T16:03:27.273Z,76.05
2023-02-05T16:05:54.192Z,75.23
2023-02-05T16:08:22.022Z,75.74
2023-02-05T16:10:57.371Z,75.75
2023-02-05T16:13:27.081Z,75.79
2023-02-05T16:16:19.257Z,75.32
2023-02-05T16:18:55.309Z,75.24
2023-02-05T16:21:30.124Z,75.08
2023-02-05T16:24:02.914Z,75.38
2023-02-05T16:26:40.796Z,76.00
2023-02-05T16:29:25.768Z,77.36
2023-02-05T16:32:21.432Z,79.23
2023-02-05T16:34:48.282Z,79.84
2023-02-05T16:37:18.547Z,79.35
2023-02-05T16:39:54.155Z,79.71
2023-02-05T16:42:26.621Z,78.97
2023-02-05T16:45:23.895Z,79.14
2023-02-05T16:48:26.353Z,79.20
2023-02-05T16:50:53.178Z,78.93
2023-02-05T16:53:26.779Z,79.56
2023-02-05T16:56:11.338Z,79.58
2023-02-05T16:58:48.433Z,79.78
2023-02-05T17:01:22.664Z,80.09
2023-02-05T17:03:51.024Z,79.89
2023-02-05T17:06:18.784Z,79.72
2023-02-05T17:08:51.314Z,78.80
2023-02-05T17:11:40.728Z,78.71
2023-02-05T17:14:13.308Z,78.63
2023-02-05T17:16:41.688Z,77.86
2023-02-05T17:19:40.896Z,78.01
2023-02-05T17:22:13.498Z,77.69
2023-02-05T17:24:48.609Z,77.44
2023-02-05T17:27:25.058Z,78.19
2023-02-05T17:29:51.969Z,78.57
2023-02-05T17:32:20.751Z,78.22
2023-02-05T17:34:47.844Z,78.17
2023-02-05T17:37:15.009Z,77.55
2023-02-05T17:39:41.739Z,76.99
2023-02-05T17:42:21.333Z,77.78
2023-02-05T17:44:48.181Z,77.87
2023-02-05T17:47:14.877Z,78.38
2023-02-05T17:49:42.143Z,78.41
2023-02-05T17:52:11.366Z,77.83
2023-02-05T17:54:38.544Z,78.09
2023-02-05T17:57:20.791Z,77.67
2023-02-05T17:59:48.231Z,77.76
2023-02-05T18:02:15.496Z,78.36
2023-02-05T18:04:42.921Z,78.70
2023-02-05T18:07:19.475Z,78.78
2023-02-05T18:09:46.345Z,78.15
2023-02-05T18:12:12.968Z,78.13
2023-02-05T18:14:39.617Z,78.39
2023-02-05T18:17:06.368Z,78.60
2023-02-05T18:19:33.258Z,77.37
2023-02-05T18:22:00.028Z,77.31
2023-02-05T18:24:27.538Z,77.26
2023-02-05T18:26:54.210Z,77.61
2023-02-05T18:29:21.008Z,77.54
2023-02-05T18:31:48.870Z,77.33
2023-02-05T18:34:15.626Z,77.83
2023-02-05T18:36:42.234Z,78.04
2023-02-05T18:39:09.105Z,77.92
2023-02-05T18:41:35.764Z,77.30
2023-02-05T18:44:02.555Z,78.28
2023-02-05T18:46:29.535Z,79.15
2023-02-05T18:48:56.435Z,79.15
2023-02-05T18:51:23.538Z,78.56
2023-02-05T18:53:50.802Z,78.98
2023-02-05T18:56:23.238Z,78.49
2023-02-05T18:58:52.966Z,77.75
2023-02-05T19:01:20.447Z,77.30
2023-02-05T19:03:47.721Z,77.46
2023-02-05T19:06:17.100Z,77.86
2023-02-05T19:08:44.195Z,77.45
2023-02-05T19:11:13.436Z,77.29
2023-02-05T19:13:51.679Z,77.16
2023-02-05T19:16:18.429Z,77.08
2023-02-05T19:18:46.210Z,77.01
2023-02-05T19:21:15.540Z,77.12
2023-02-05T19:23:42.883Z,76.51
2023-02-05T19:26:15.199Z,76.99
2023-02-05T19:28:44.122Z,77.35
2023-02-05T19:31:13.941Z,77.12
2023-02-05T19:33:41.235Z,77.56
2023-02-05T19:36:09.538Z,77.40
2023-02-05T19:38:38.147Z,77.54
2023-02-05T19:41:17.370Z,77.09
2023-02-05T19:43:49.473Z,77.63
2023-02-05T19:46:22.356Z,76.72
2023-02-05T19:48:49.223Z,77.22
2023-02-05T19:51:19.118Z,76.59
2023-02-05T19:53:46.788Z,77.95
2023-02-05T19:56:24.416Z,77.43
2023-02-05T19:58:54.124Z,76.94
2023-02-05T20:01:24.033Z,78.66
2023-02-05T20:03:53.231Z,77.78
2023-02-05T20:06:22.133Z,78.14
2023-02-05T20:08:49.303Z,77.48
2023-02-05T20:11:17.189Z,77.32
2023-02-05T20:13:44.959Z,77.56
2023-02-05T20:16:17.667Z,77.19
2023-02-05T20:18:44.858Z,77.30
2023-02-05T20:21:17.170Z,77.32
2023-02-05T20:23:44.328Z,76.25
2023-02-05T20:26:11.646Z,76.94
2023-02-05T20:28:40.514Z,76.86
2023-02-05T20:31:07.160Z,76.65
2023-02-05T20:33:33.868Z,75.88
2023-02-05T20:36:08.824Z,77.14
2023-02-05T20:38:35.571Z,76.88
2023-02-05T20:41:17.779Z,76.62
2023-02-05T20:43:44.609Z,76.75
2023-02-05T20:46:11.226Z,76.90
2023-02-05T20:48:38.268Z,76.33
2023-02-05T20:51:07.819Z,76.55
2023-02-05T20:53:34.916Z,76.38
2023-02-05T20:56:07.025Z,76.25
2023-02-05T20:58:34.320Z,77.10
2023-02-05T21:01:15.778Z,76.72
2023-02-05T21:03:45.065Z,76.79
2023-02-05T21:06:12.427Z,76.24
2023-02-05T21:08:40.992Z,76.16
2023-02-05T21:11:07.964Z,76.82
2023-02-05T21:13:35.495Z,76.16
2023-02-05T21:16:03.503Z,76.56
2023-02-05T21:18:30.674Z,76.34
2023-02-05T21:21:09.173Z,76.74
2023-02-05T21:23:36.569Z,76.16
2023-02-05T21:26:04.455Z,76.16
2023-02-05T21:28:32.203Z,75.90
2023-02-05T21:31:07.643Z,76.58
2023-02-05T21:33:35.918Z,75.41
2023-02-05T21:36:04.406Z,76.03
2023-02-05T21:38:34.710Z,75.94
2023-02-05T21:41:07.312Z,76.01
2023-02-05T21:43:34.276Z,76.30
2023-02-05T21:46:02.944Z,75.55
2023-02-05T21:48:29.800Z,76.02
2023-02-05T21:50:56.425Z,75.91
2023-02-05T21:53:23.223Z,76.57
2023-02-05T21:55:49.847Z,75.86
2023-02-05T21:58:16.458Z,76.48
2023-02-05T22:00:43.045Z,75.69
2023-02-05T22:03:10.213Z,76.04
2023-02-05T22:05:36.815Z,76.28
2023-02-05T22:08:03.830Z,75.80
2023-02-05T22:10:30.446Z,76.65
2023-02-05T22:12:57.140Z,76.26
2023-02-05T22:15:23.771Z,76.54
2023-02-05T22:17:50.480Z,76.39
2023-02-05T22:20:17.249Z,76.17
2023-02-05T22:22:44.038Z,75.84
2023-02-05T22:25:10.671Z,76.21
2023-02-05T22:27:37.399Z,76.67
2023-02-05T22:30:04.251Z,76.78
2023-02-05T22:32:30.982Z,76.73
2023-02-05T22:34:57.587Z,77.09
2023-02-05T22:37:24.260Z,76.51
2023-02-05T22:39:50.946Z,77.25
2023-02-05T22:42:19.027Z,77.44
2023-02-05T22:44:45.749Z,77.16
2023-02-05T22:47:12.519Z,77.01
2023-02-05T22:49:39.206Z,77.51
2023-02-05T22:52:05.882Z,77.47
2023-02-05T22:54:32.512Z,77.31
2023-02-05T22:56:59.177Z,77.44
2023-02-05T22:59:25.809Z,76.92
2023-02-05T23:01:52.528Z,76.98
2023-02-05T23:04:19.142Z,77.22
2023-02-05T23:06:45.872Z,77.18
2023-02-05T23:09:16.079Z,77.21
2023-02-05T23:11:44.246Z,76.81
2023-02-05T23:14:12.807Z,77.29
2023-02-05T23:16:42.284Z,76.63
2023-02-05T23:19:12.824Z,77.30
2023-02-05T23:21:41.619Z,76.72
2023-02-05T23:24:08.916Z,76.46
2023-02-05T23:26:39.486Z,77.01
2023-02-05T23:29:06.730Z,76.32
2023-02-05T23:31:33.583Z,76.53
2023-02-05T23:34:00.406Z,77.02
2023-02-05T23:36:27.126Z,77.35
2023-02-05T23:38:53.850Z,76.96
2023-02-05T23:41:20.630Z,76.84
2023-02-05T23:43:47.238Z,76.70
2023-02-05T23:46:14.030Z,77.10
2023-02-05T23:48:40.671Z,76.80
2023-02-05T23:51:07.480Z,76.65
2023-02-05T23:53:34.114Z,77.10
2023-02-05T23:56:00.931Z,76.84
2023-02-05T23:58:27.515Z,77.21
